Time;durP1;ratioP1;P1;durP2;ratioP2;P2;SDS_P1;SDS_P2;PMS_P1;PMS_P2;Temp;Humidity;BMP_temperature;BMP_pressure;BME280_temperature;BME280_humidity;BME280_pressure;Samples;Min_cycle;Max_cycle;Signal;HPM_P1;HPM_P2
2021/12/18 00:01:01;;;;;;;2.80;2.33;;;;;;;5.44;100.00;103318.44;5028253;28;20687;-53
2021/12/18 00:03:28;;;;;;;5.50;2.47;;;;;;;5.28;100.00;103309.56;5026416;28;20237;-56
2021/12/18 00:05:54;;;;;;;2.40;2.20;;;;;;;5.34;100.00;103317.78;5021955;28;20256;-54
2021/12/18 00:08:21;;;;;;;3.63;3.00;;;;;;;5.38;100.00;103318.03;5018103;28;20268;-55
2021/12/18 00:10:47;;;;;;;2.37;2.13;;;;;;;5.28;100.00;103315.69;5016739;28;20312;-55
2021/12/18 00:13:14;;;;;;;3.40;2.57;;;;;;;5.45;100.00;103316.72;5019565;28;20237;-54
2021/12/18 00:15:42;;;;;;;2.33;2.13;;;;;;;5.38;100.00;103311.94;5026751;28;20282;-56
2021/12/18 00:18:08;;;;;;;3.27;2.77;;;;;;;5.45;100.00;103311.50;5016901;28;20259;-55
2021/12/18 00:20:37;;;;;;;2.57;2.37;;;;;;;5.39;100.00;103311.13;5031067;22;20717;-55
2021/12/18 00:23:04;;;;;;;2.40;2.20;;;;;;;5.33;100.00;103310.75;5021917;28;20246;-56
2021/12/18 00:25:31;;;;;;;8.17;2.80;;;;;;;5.38;100.00;103305.03;5021853;28;20232;-57
2021/12/18 00:27:57;;;;;;;4.37;3.20;;;;;;;5.42;100.00;103303.50;5018686;28;20291;-57
2021/12/18 00:30:25;;;;;;;3.13;2.40;;;;;;;5.37;100.00;103302.31;5016055;28;20279;-55
2021/12/18 00:32:54;;;;;;;4.73;3.00;;;;;;;5.40;100.00;103302.50;4997095;28;20231;-56
2021/12/18 00:35:20;;;;;;;4.27;2.90;;;;;;;5.28;100.00;103300.03;5000559;28;20288;-57
2021/12/18 00:37:47;;;;;;;4.03;3.33;;;;;;;5.27;100.00;103300.84;5002939;28;20449;-56
2021/12/18 00:40:20;;;;;;;2.80;2.17;;;;;;;5.44;100.00;103300.19;4999876;28;20698;-57
2021/12/18 00:42:49;;;;;;;3.87;2.80;;;;;;;5.41;100.00;103286.09;5005909;28;20319;-56
2021/12/18 00:45:17;;;;;;;2.77;2.47;;;;;;;5.32;100.00;103285.50;4998731;28;20917;-55
2021/12/18 00:47:45;;;;;;;3.73;2.47;;;;;;;5.29;100.00;103282.72;5002775;28;20256;-55
2021/12/18 00:50:15;;;;;;;2.83;2.53;;;;;;;5.30;100.00;103284.50;4996780;28;20260;-56
2021/12/18 00:52:42;;;;;;;1.97;1.80;;;;;;;5.29;100.00;103299.22;5003126;28;20823;-57
2021/12/18 00:55:09;;;;;;;2.87;2.60;;;;;;;5.33;100.00;103302.91;5005697;28;20332;-57
2021/12/18 00:57:37;;;;;;;4.73;2.60;;;;;;;5.30;100.00;103305.34;5003157;28;20229;-57
2021/12/18 01:00:06;;;;;;;2.47;2.17;;;;;;;5.35;100.00;103303.94;5008542;28;20232;-56
2021/12/18 01:02:32;;;;;;;4.57;3.00;;;;;;;5.30;100.00;103300.13;5010712;28;20255;-56
2021/12/18 01:04:59;;;;;;;2.93;2.33;;;;;;;5.26;100.00;103306.84;5007447;28;20589;-56
2021/12/18 01:07:26;;;;;;;3.10;2.60;;;;;;;5.22;100.00;103308.38;5007230;28;20995;-54
2021/12/18 01:10:02;;;;;;;3.13;2.53;;;;;;;5.18;100.00;103308.09;4994771;28;20913;-58
2021/12/18 01:12:34;;;;;;;3.50;2.53;;;;;;;5.18;100.00;103316.78;5006884;28;20241;-54
2021/12/18 01:15:14;;;;;;;3.47;2.97;;;;;;;5.18;100.00;103314.19;5007578;28;20243;-57
2021/12/18 01:23:10;;;;;;;2.60;2.33;;;;;;;5.25;100.00;103324.19;4992525;28;20236;-54
2021/12/18 01:25:37;;;;;;;4.13;2.60;;;;;;;5.23;100.00;103324.91;4994214;28;20288;-55
2021/12/18 01:28:03;;;;;;;3.13;2.83;;;;;;;5.20;100.00;103329.94;4999505;28;20260;-54
2021/12/18 01:30:30;;;;;;;6.43;2.80;;;;;;;5.25;100.00;103313.78;4994090;28;20258;-55
2021/12/18 01:32:56;;;;;;;2.47;2.27;;;;;;;5.34;100.00;103320.38;5014414;28;20267;-54
2021/12/18 01:35:23;;;;;;;2.70;2.50;;;;;;;5.35;100.00;103314.34;5001138;28;21346;-58
2021/12/18 01:37:50;;;;;;;2.37;2.17;;;;;;;5.31;100.00;103312.38;5008859;28;20769;-56
2021/12/18 01:40:20;;;;;;;2.50;2.30;;;;;;;5.29;100.00;103308.75;5002883;28;20234;-57
2021/12/18 01:45:42;;;;;;;2.77;2.50;;;;;;;5.21;100.00;103296.16;5002896;28;20236;-55
2021/12/18 01:53:37;;;;;;;2.97;2.53;;;;;;;5.14;100.00;103267.94;4996349;28;20249;-56
2021/12/18 01:56:06;;;;;;;2.83;1.97;;;;;;;5.34;100.00;103276.09;4998302;28;20253;-56
2021/12/18 01:58:32;;;;;;;1.93;1.77;;;;;;;5.35;100.00;103276.16;4991256;28;21240;-57
2021/12/18 02:01:01;;;;;;;2.57;2.10;;;;;;;5.33;100.00;103272.56;4998189;28;20240;-55
2021/12/18 02:03:27;;;;;;;1.83;1.73;;;;;;;5.34;100.00;103270.88;5001499;28;20714;-55
2021/12/18 02:05:55;;;;;;;2.83;2.40;;;;;;;5.38;100.00;103262.44;4988248;28;20758;-56
2021/12/18 02:08:23;;;;;;;2.27;2.07;;;;;;;5.43;100.00;103267.09;4993370;28;20285;-56
2021/12/18 02:10:55;;;;;;;2.37;2.07;;;;;;;5.42;100.00;103264.41;4989671;28;20233;-56
2021/12/18 02:13:39;;;;;;;2.90;2.47;;;;;;;5.47;100.00;103274.28;4992986;28;20315;-56
2021/12/18 02:21:35;;;;;;;3.87;2.93;;;;;;;5.37;100.00;103271.97;4984935;28;20240;-56
2021/12/18 02:24:02;;;;;;;2.77;1.97;;;;;;;5.41;100.00;103283.47;4988225;28;20243;-55
2021/12/18 02:26:29;;;;;;;2.60;1.97;;;;;;;5.49;100.00;103277.00;5001386;28;20325;-57
2021/12/18 02:28:58;;;;;;;3.47;2.63;;;;;;;5.46;100.00;103282.03;5000675;28;20234;-55
2021/12/18 02:31:25;;;;;;;2.73;2.37;;;;;;;5.39;100.00;103282.47;4993608;28;20244;-55
2021/12/18 02:33:51;;;;;;;3.37;2.23;;;;;;;5.41;100.00;103283.47;5002686;28;20276;-56
2021/12/18 02:36:23;;;;;;;2.43;2.23;;;;;;;5.48;100.00;103289.16;4989846;28;20244;-56
2021/12/18 02:39:07;;;;;;;2.70;2.37;;;;;;;5.50;100.00;103273.59;4988780;28;20253;-55
2021/12/18 02:41:37;;;;;;;3.03;2.20;;;;;;;5.48;100.00;103283.03;4999840;28;20248;-55
2021/12/18 02:44:05;;;;;;;3.47;1.90;;;;;;;5.62;100.00;103271.75;5002185;28;20324;-53
2021/12/18 02:46:32;;;;;;;2.90;2.70;;;;;;;5.57;100.00;103270.56;4995401;28;20233;-56
2021/12/18 02:49:06;;;;;;;2.40;2.20;;;;;;;5.42;100.00;103267.91;5004545;28;20320;-56
2021/12/18 02:51:33;;;;;;;3.20;2.77;;;;;;;5.41;100.00;103267.84;4997338;28;20252;-56
2021/12/18 02:54:00;;;;;;;4.27;3.00;;;;;;;5.44;100.00;103262.78;5001080;28;20237;-53
2021/12/18 02:56:26;;;;;;;4.80;2.53;;;;;;;5.44;100.00;103263.72;5002289;28;20311;-55
2021/12/18 02:58:54;;;;;;;2.90;2.40;;;;;;;5.64;100.00;103266.59;5002311;28;20839;-56
2021/12/18 03:01:24;;;;;;;3.47;2.83;;;;;;;5.47;100.00;103268.19;5000670;28;20245;-56
2021/12/18 03:03:51;;;;;;;2.40;1.97;;;;;;;5.45;100.00;103262.00;5000905;28;20628;-56
2021/12/18 03:06:26;;;;;;;4.83;2.27;;;;;;;5.50;100.00;103266.66;5001983;28;20244;-58
2021/12/18 03:09:10;;;;;;;4.47;2.10;;;;;;;5.44;100.00;103252.38;5000616;28;20697;-55
2021/12/18 03:23:12;;;;;;;4.53;2.40;;;;;;;5.55;100.00;103253.94;4999308;28;20768;-55
2021/12/18 03:25:39;;;;;;;3.13;2.50;;;;;;;5.46;100.00;103242.97;4995593;28;20214;-56
2021/12/18 03:28:08;;;;;;;2.80;2.30;;;;;;;5.45;100.00;103244.66;4998088;28;20252;-55
2021/12/18 03:30:35;;;;;;;2.30;2.10;;;;;;;5.41;100.00;103236.59;5006373;28;20905;-56
2021/12/18 03:33:02;;;;;;;2.90;2.50;;;;;;;5.49;100.00;103233.63;5000043;28;20654;-56
2021/12/18 03:35:29;;;;;;;6.07;3.00;;;;;;;5.44;100.00;103237.66;4995582;28;20230;-55
2021/12/18 03:37:55;;;;;;;2.83;2.50;;;;;;;5.46;100.00;103236.03;4997665;28;20268;-55
2021/12/18 03:40:24;;;;;;;3.00;2.70;;;;;;;5.52;100.00;103230.31;4995641;28;20789;-55
2021/12/18 03:42:51;;;;;;;3.23;2.93;;;;;;;5.53;100.00;103226.00;5002554;28;20682;-56
2021/12/18 03:45:19;;;;;;;4.30;3.50;;;;;;;5.56;100.00;103227.06;4997249;28;20250;-56
2021/12/18 03:47:46;;;;;;;4.07;3.53;;;;;;;5.54;100.00;103218.25;5005391;28;20233;-56
2021/12/18 03:50:13;;;;;;;4.37;3.30;;;;;;;5.47;100.00;103221.28;4999598;28;20262;-56
2021/12/18 03:52:40;;;;;;;4.40;3.60;;;;;;;5.44;100.00;103223.72;4994185;28;20260;-55
2021/12/18 03:55:07;;;;;;;3.27;2.97;;;;;;;5.43;100.00;103221.91;4999315;28;20223;-55
2021/12/18 03:57:33;;;;;;;2.87;2.60;;;;;;;5.33;100.00;103227.38;5001774;28;20229;-56
2021/12/18 03:59:59;;;;;;;3.83;3.13;;;;;;;5.45;100.00;103233.34;5003103;28;20380;-55
2021/12/18 04:02:27;;;;;;;4.60;3.83;;;;;;;5.51;100.00;103233.72;5005793;28;20724;-56
2021/12/18 04:04:54;;;;;;;4.70;2.70;;;;;;;5.48;100.00;103230.94;4991518;28;20510;-55
2021/12/18 04:07:20;;;;;;;4.07;3.03;;;;;;;5.44;100.00;103231.53;4991686;28;20683;-56
2021/12/18 04:09:48;;;;;;;4.50;3.33;;;;;;;5.41;100.00;103231.38;5000567;28;20263;-56
2021/12/18 04:12:14;;;;;;;3.73;3.00;;;;;;;5.43;100.00;103232.34;4996021;28;20243;-56
2021/12/18 04:14:41;;;;;;;3.03;2.73;;;;;;;5.50;100.00;103238.00;5004347;28;20282;-53
2021/12/18 04:17:07;;;;;;;3.27;2.97;;;;;;;5.49;100.00;103232.72;4997265;28;20852;-56
2021/12/18 04:19:36;;;;;;;3.37;2.77;;;;;;;5.58;100.00;103230.69;5004448;28;20272;-55
2021/12/18 04:22:03;;;;;;;2.77;2.57;;;;;;;5.56;100.00;103229.69;5003208;28;20268;-56
2021/12/18 04:24:29;;;;;;;3.20;2.30;;;;;;;5.45;100.00;103231.63;4998302;28;20363;-53
2021/12/18 04:26:56;;;;;;;3.23;2.93;;;;;;;5.34;100.00;103227.50;5002871;28;20629;-56
2021/12/18 04:29:22;;;;;;;3.53;3.23;;;;;;;5.32;100.00;103233.41;5000855;28;20257;-56
2021/12/18 04:31:49;;;;;;;5.37;3.33;;;;;;;5.42;100.00;103230.56;5013836;28;20265;-56
2021/12/18 04:34:15;;;;;;;4.47;3.30;;;;;;;5.35;100.00;103226.69;5011229;28;20225;-56
2021/12/18 04:36:43;;;;;;;3.73;3.00;;;;;;;5.39;100.00;103226.06;5008590;28;20284;-55
2021/12/18 04:39:09;;;;;;;5.73;3.40;;;;;;;5.43;100.00;103232.34;5005794;28;20279;-54
2021/12/18 04:41:39;;;;;;;3.60;3.00;;;;;;;5.48;100.00;103233.53;5009157;28;20229;-56
2021/12/18 04:44:06;;;;;;;3.47;2.53;;;;;;;5.38;100.00;103225.97;5008858;28;20240;-56
2021/12/18 04:46:33;;;;;;;2.70;2.50;;;;;;;5.48;100.00;103233.53;5007451;28;20279;-56
2021/12/18 04:48:59;;;;;;;3.30;2.60;;;;;;;5.37;100.00;103231.97;5003188;28;20295;-55
2021/12/18 04:51:25;;;;;;;2.57;2.23;;;;;;;5.28;100.00;103231.44;5001920;28;20295;-56
2021/12/18 04:53:53;;;;;;;3.97;2.60;;;;;;;5.28;100.00;103227.13;5006185;28;20702;-56
2021/12/18 04:56:19;;;;;;;3.40;2.47;;;;;;;5.24;100.00;103233.84;5003482;28;20272;-56
2021/12/18 04:58:46;;;;;;;2.83;2.57;;;;;;;5.23;100.00;103223.34;5006563;28;20264;-56
2021/12/18 05:01:12;;;;;;;2.80;2.60;;;;;;;5.35;100.00;103226.69;5003163;28;20233;-56
2021/12/18 05:03:40;;;;;;;2.43;2.23;;;;;;;5.31;100.00;103218.59;5002623;28;20221;-54
2021/12/18 05:06:06;;;;;;;2.53;2.23;;;;;;;5.33;100.00;103212.66;4999640;28;20230;-56
2021/12/18 05:08:33;;;;;;;3.50;2.27;;;;;;;5.30;100.00;103214.16;5007971;28;20775;-56
2021/12/18 05:11:00;;;;;;;2.60;2.40;;;;;;;5.23;100.00;103210.31;5005492;28;20765;-55
2021/12/18 05:13:27;;;;;;;3.03;2.50;;;;;;;5.18;100.00;103214.34;5009165;28;20714;-56
2021/12/18 05:15:53;;;;;;;2.40;2.13;;;;;;;5.16;100.00;103213.34;5004053;28;20233;-56
2021/12/18 05:18:19;;;;;;;4.13;2.73;;;;;;;5.20;100.00;103220.56;5013540;28;20256;-55
2021/12/18 05:20:46;;;;;;;4.17;3.10;;;;;;;5.16;100.00;103224.69;5001814;28;20234;-54
2021/12/18 05:23:12;;;;;;;3.07;2.77;;;;;;;5.19;100.00;103219.63;4998342;28;20233;-55
2021/12/18 05:25:39;;;;;;;2.93;2.60;;;;;;;5.26;100.00;103220.91;5011660;28;20236;-56
2021/12/18 05:28:06;;;;;;;2.93;2.30;;;;;;;5.25;100.00;103217.41;4995279;28;20229;-57
2021/12/18 05:30:33;;;;;;;3.07;2.30;;;;;;;5.35;100.00;103217.97;5011867;28;20240;-57
2021/12/18 05:32:59;;;;;;;3.13;2.50;;;;;;;5.35;100.00;103216.25;5002349;28;20245;-55
2021/12/18 05:35:26;;;;;;;3.23;2.37;;;;;;;5.35;100.00;103216.25;5011278;28;20673;-57
2021/12/18 05:37:54;;;;;;;3.40;2.77;;;;;;;5.30;100.00;103219.38;5003356;28;20299;-57
2021/12/18 05:40:22;;;;;;;2.83;2.13;;;;;;;5.33;100.00;103217.84;5005476;28;20244;-56
2021/12/18 05:42:50;;;;;;;2.97;2.67;;;;;;;5.28;100.00;103223.63;5002839;28;20291;-57
2021/12/18 05:45:19;;;;;;;2.70;2.50;;;;;;;5.28;100.00;103215.81;4997673;28;20246;-56
2021/12/18 05:47:46;;;;;;;3.07;2.77;;;;;;;5.24;100.00;103223.44;4998985;28;20285;-56
2021/12/18 05:50:13;;;;;;;3.50;2.77;;;;;;;5.35;100.00;103221.47;5004968;28;20327;-57
2021/12/18 05:52:41;;;;;;;2.90;2.60;;;;;;;5.35;100.00;103215.38;5004372;28;20318;-56
2021/12/18 05:55:08;;;;;;;3.07;2.47;;;;;;;5.39;100.00;103222.56;5004706;28;20265;-57
2021/12/18 05:57:34;;;;;;;5.43;3.07;;;;;;;5.48;100.00;103223.13;5002218;28;20257;-56
2021/12/18 06:00:01;;;;;;;2.83;2.23;;;;;;;5.25;100.00;103220.00;5005653;28;20291;-56
2021/12/18 06:02:29;;;;;;;4.40;2.30;;;;;;;5.25;100.00;103216.50;5002783;28;20241;-55
2021/12/18 06:04:55;;;;;;;4.20;3.00;;;;;;;5.25;100.00;103217.41;5002563;28;20257;-55
2021/12/18 06:07:30;;;;;;;5.83;3.07;;;;;;;5.22;100.00;103212.00;5004718;28;20670;-57
2021/12/18 06:09:56;;;;;;;4.27;2.37;;;;;;;5.26;100.00;103206.19;4988521;28;20324;-53
2021/12/18 06:12:23;;;;;;;3.50;3.20;;;;;;;5.25;100.00;103209.59;4989638;28;20383;-56
2021/12/18 06:14:49;;;;;;;3.67;2.90;;;;;;;5.16;100.00;103214.25;4992783;28;20849;-54
2021/12/18 06:17:16;;;;;;;3.20;2.90;;;;;;;5.17;100.00;103204.75;4996079;28;20256;-55
2021/12/18 06:19:44;;;;;;;3.90;2.80;;;;;;;5.20;100.00;103205.81;4994750;28;20261;-55
2021/12/18 06:22:10;;;;;;;5.80;3.47;;;;;;;5.32;100.00;103199.53;5021750;22;20244;-53
2021/12/18 06:24:36;;;;;;;3.30;3.00;;;;;;;5.33;100.00;103206.53;5006449;28;20238;-52
2021/12/18 06:27:03;;;;;;;4.73;3.27;;;;;;;5.26;100.00;103201.00;5001159;28;20279;-54
2021/12/18 06:29:31;;;;;;;2.87;2.50;;;;;;;5.24;100.00;103197.38;4989445;28;20277;-53
2021/12/18 06:31:58;;;;;;;3.10;2.60;;;;;;;5.21;100.00;103191.97;4991660;28;20703;-54
2021/12/18 06:34:24;;;;;;;3.40;2.87;;;;;;;5.23;100.00;103193.00;4966541;28;20708;-54
2021/12/18 06:36:52;;;;;;;3.00;2.70;;;;;;;5.32;100.00;103191.72;4973239;28;20349;-55
2021/12/18 06:39:18;;;;;;;3.93;3.40;;;;;;;5.25;100.00;103188.75;4972546;28;20227;-52
2021/12/18 06:41:44;;;;;;;2.83;2.53;;;;;;;5.20;100.00;103189.31;4972101;28;20340;-51
2021/12/18 06:44:11;;;;;;;4.37;3.13;;;;;;;5.26;100.00;103189.66;4963312;28;20246;-54
2021/12/18 06:46:37;;;;;;;4.07;2.87;;;;;;;5.23;100.00;103190.38;4967465;28;20235;-54
2021/12/18 06:49:04;;;;;;;3.20;2.30;;;;;;;5.24;100.00;103181.75;4992540;28;20826;-53
2021/12/18 06:51:30;;;;;;;3.37;2.33;;;;;;;5.30;100.00;103186.44;4968487;28;20266;-53
2021/12/18 06:53:58;;;;;;;3.17;2.37;;;;;;;5.34;100.00;103187.53;4972186;28;20245;-53
2021/12/18 06:56:24;;;;;;;2.83;2.27;;;;;;;5.42;100.00;103187.16;4981272;28;20723;-52
2021/12/18 06:58:51;;;;;;;2.20;2.00;;;;;;;5.41;100.00;103174.94;4969487;28;20306;-53
2021/12/18 07:01:17;;;;;;;2.70;2.37;;;;;;;5.39;100.00;103186.09;4975387;28;20313;-54
2021/12/18 07:03:43;;;;;;;2.58;2.38;;;;;;;5.40;100.00;103182.66;4971668;28;20462;-53
2021/12/18 07:06:10;;;;;;;2.40;2.20;;;;;;;5.45;100.00;103176.03;4997755;28;20252;-52
2021/12/18 07:08:36;;;;;;;2.90;2.67;;;;;;;5.44;100.00;103174.22;4977694;28;20763;-53
2021/12/18 07:11:04;;;;;;;3.53;2.70;;;;;;;5.50;100.00;103165.06;4967398;28;20763;-54
2021/12/18 07:13:30;;;;;;;2.50;2.30;;;;;;;5.51;100.00;103168.59;4984500;28;20246;-52
2021/12/18 07:15:56;;;;;;;3.03;2.07;;;;;;;5.49;100.00;103175.41;4982334;28;20250;-53
2021/12/18 07:18:23;;;;;;;2.77;2.13;;;;;;;5.41;100.00;103174.94;4964472;28;20262;-52
2021/12/18 07:20:51;;;;;;;3.27;2.50;;;;;;;5.49;100.00;103173.69;4967590;28;20300;-54
2021/12/18 07:23:18;;;;;;;2.43;2.23;;;;;;;5.52;100.00;103172.09;4968166;28;20309;-52
2021/12/18 07:25:44;;;;;;;4.17;2.73;;;;;;;5.60;100.00;103169.09;4985714;28;20252;-52
2021/12/18 07:28:12;;;;;;;4.57;3.53;;;;;;;5.63;100.00;103161.47;4965775;28;20827;-53
2021/12/18 07:30:38;;;;;;;4.00;3.60;;;;;;;5.60;100.00;103163.91;4971123;28;20234;-55
2021/12/18 07:33:10;;;;;;;3.87;3.20;;;;;;;5.54;100.00;103168.75;4969550;28;20250;-52
2021/12/18 07:35:36;;;;;;;3.37;2.83;;;;;;;5.51;100.00;103160.78;4978164;28;20236;-54
2021/12/18 07:38:02;;;;;;;4.03;2.90;;;;;;;5.56;100.00;103164.53;4978626;28;20283;-54
2021/12/18 07:40:29;;;;;;;3.73;2.90;;;;;;;5.59;100.00;103159.50;4969534;28;20226;-53
2021/12/18 07:42:55;;;;;;;3.03;2.37;;;;;;;5.54;100.00;103160.91;4969116;28;20230;-53
2021/12/18 07:45:23;;;;;;;2.67;2.30;;;;;;;5.37;100.00;103157.34;4982699;28;20261;-52
2021/12/18 07:47:49;;;;;;;4.30;3.43;;;;;;;5.46;100.00;103155.25;4992695;28;20586;-53
2021/12/18 07:50:20;;;;;;;4.37;3.63;;;;;;;5.53;100.00;103153.03;4975858;28;20930;-52
2021/12/18 07:52:47;;;;;;;2.90;2.60;;;;;;;5.46;100.00;103156.97;4974770;28;20291;-53
2021/12/18 07:55:13;;;;;;;6.87;4.77;;;;;;;5.55;100.00;103148.81;4965145;28;20234;-52
2021/12/18 07:57:40;;;;;;;5.87;4.73;;;;;;;5.43;100.00;103146.38;4965728;28;20230;-54
2021/12/18 08:00:10;;;;;;;4.57;3.77;;;;;;;5.42;100.00;103139.38;4965303;28;20234;-53
2021/12/18 08:02:37;;;;;;;4.03;3.63;;;;;;;5.43;100.00;103135.94;4976707;28;20313;-52
2021/12/18 08:05:04;;;;;;;3.93;3.30;;;;;;;5.39;100.00;103134.88;4974418;28;20680;-54
2021/12/18 08:07:31;;;;;;;5.00;3.10;;;;;;;5.30;100.00;103129.16;4969195;28;20252;-53
2021/12/18 08:09:57;;;;;;;4.43;3.50;;;;;;;5.25;100.00;103128.84;4965197;28;20257;-53
2021/12/18 08:12:24;;;;;;;4.53;3.60;;;;;;;5.37;100.00;103131.31;4974417;28;20261;-52
2021/12/18 08:14:50;;;;;;;3.60;3.30;;;;;;;5.28;100.00;103129.84;4965064;28;20400;-54
2021/12/18 08:17:17;;;;;;;6.10;5.00;;;;;;;5.31;100.00;103135.25;4975233;28;20257;-52
2021/12/18 08:19:44;;;;;;;3.53;2.73;;;;;;;5.23;100.00;103125.28;4970488;28;20332;-52
2021/12/18 08:22:11;;;;;;;4.73;3.20;;;;;;;5.24;100.00;103129.66;4974311;28;20835;-53
2021/12/18 08:24:37;;;;;;;2.27;1.90;;;;;;;5.21;100.00;103131.19;4969162;28;20230;-51
2021/12/18 08:27:04;;;;;;;2.77;2.13;;;;;;;5.30;100.00;103133.44;4964743;28;20230;-54
2021/12/18 08:29:30;;;;;;;2.70;1.53;;;;;;;5.32;100.00;103131.81;4964956;28;20243;-51
2021/12/18 08:31:56;;;;;;;1.50;1.23;;;;;;;5.29;100.00;103126.44;4972781;28;20401;-52
2021/12/18 08:34:23;;;;;;;1.27;1.17;;;;;;;5.31;100.00;103127.44;4972100;28;20816;-53
2021/12/18 08:36:51;;;;;;;1.13;1.03;;;;;;;5.35;100.00;103127.69;4978292;28;20297;-53
2021/12/18 08:39:18;;;;;;;1.87;1.50;;;;;;;5.27;100.00;103118.53;4967719;28;20257;-52
2021/12/18 08:41:45;;;;;;;1.90;1.57;;;;;;;5.29;100.00;103126.44;4985177;28;20226;-54
2021/12/18 08:44:12;;;;;;;1.47;1.37;;;;;;;5.30;100.00;103118.72;4967899;28;20297;-53
2021/12/18 08:46:39;;;;;;;2.47;2.27;;;;;;;5.35;100.00;103126.81;4968670;28;20839;-55
2021/12/18 08:49:05;;;;;;;3.33;2.00;;;;;;;5.46;100.00;103130.94;4965396;28;20229;-52
2021/12/18 08:51:32;;;;;;;2.37;2.13;;;;;;;5.40;100.00;103131.44;4965786;28;20281;-54
2021/12/18 08:54:00;;;;;;;4.90;2.20;;;;;;;5.49;100.00;103126.78;4969379;28;20676;-53
2021/12/18 08:56:26;;;;;;;2.63;1.87;;;;;;;5.60;100.00;103131.72;4965319;28;20226;-55
2021/12/18 08:58:53;;;;;;;2.00;1.70;;;;;;;5.50;100.00;103139.00;4965572;28;20305;-53
2021/12/18 09:01:21;;;;;;;4.37;2.03;;;;;;;5.46;100.00;103138.75;4980596;28;20264;-54
2021/12/18 09:03:48;;;;;;;1.87;1.77;;;;;;;5.46;100.00;103137.03;4965978;28;20245;-51
2021/12/18 09:06:14;;;;;;;2.27;2.03;;;;;;;5.48;100.00;103134.53;4965952;28;20648;-53
2021/12/18 09:08:41;;;;;;;2.20;2.00;;;;;;;5.43;100.00;103122.94;4979264;28;20602;-54
2021/12/18 09:11:08;;;;;;;2.80;2.13;;;;;;;5.48;100.00;103137.13;4977286;28;20246;-52
2021/12/18 09:13:34;;;;;;;2.43;2.23;;;;;;;5.50;100.00;103127.69;4967737;28;20905;-53
2021/12/18 09:16:01;;;;;;;3.53;2.73;;;;;;;5.59;100.00;103127.34;4967183;28;20230;-54
2021/12/18 09:18:27;;;;;;;3.90;3.03;;;;;;;5.62;100.00;103122.31;4982548;28;20253;-52
2021/12/18 09:20:54;;;;;;;2.67;2.30;;;;;;;5.64;100.00;103121.56;4973659;28;20806;-54
2021/12/18 09:23:22;;;;;;;2.60;2.40;;;;;;;5.74;100.00;103123.88;4981682;28;20325;-52
2021/12/18 09:25:48;;;;;;;3.30;2.73;;;;;;;5.70;100.00;103115.81;4987620;28;20370;-53
2021/12/18 09:28:16;;;;;;;2.90;2.57;;;;;;;5.75;100.00;103109.16;4971766;28;20293;-52
2021/12/18 09:30:43;;;;;;;3.63;2.70;;;;;;;5.75;100.00;103110.03;4983023;28;20567;-51
2021/12/18 09:33:11;;;;;;;4.03;2.67;;;;;;;5.73;100.00;103116.00;4981792;28;20289;-52
2021/12/18 09:35:38;;;;;;;5.63;2.90;;;;;;;5.76;100.00;103110.97;4986564;28;20261;-54
2021/12/18 09:38:04;;;;;;;3.33;2.77;;;;;;;5.67;100.00;103111.31;4987848;28;20226;-54
2021/12/18 09:40:31;;;;;;;4.00;3.60;;;;;;;5.77;100.00;103111.84;4973497;28;20226;-53
2021/12/18 09:42:57;;;;;;;5.73;3.90;;;;;;;5.80;100.00;103112.94;4974903;28;20310;-53
2021/12/18 09:45:25;;;;;;;3.40;3.10;;;;;;;5.75;100.00;103115.25;4976046;28;20234;-54
2021/12/18 09:47:52;;;;;;;6.37;3.83;;;;;;;5.78;100.00;103108.44;4986651;28;20707;-52
2021/12/18 09:50:20;;;;;;;3.10;2.80;;;;;;;5.74;100.00;103097.81;4967743;28;20239;-52
2021/12/18 09:52:47;;;;;;;4.70;3.57;;;;;;;5.84;100.00;103098.34;4976624;28;20904;-53
2021/12/18 09:55:14;;;;;;;4.80;3.57;;;;;;;5.91;100.00;103100.50;4979024;28;20238;-54
2021/12/18 09:57:41;;;;;;;5.80;3.63;;;;;;;5.81;100.00;103092.97;4969543;28;20696;-52
2021/12/18 10:00:10;;;;;;;5.07;3.67;;;;;;;5.85;100.00;103085.41;4968845;28;20723;-52
2021/12/18 10:02:39;;;;;;;3.70;3.40;;;;;;;5.79;100.00;103085.06;4983212;28;20234;-53
2021/12/18 10:05:06;;;;;;;3.43;3.10;;;;;;;5.72;100.00;103089.03;4978653;28;20226;-53
2021/12/18 10:07:32;;;;;;;2.87;2.63;;;;;;;5.89;100.00;103086.47;4968651;28;20715;-53
2021/12/18 10:10:00;;;;;;;3.10;2.80;;;;;;;5.88;100.00;103089.88;4969341;28;20254;-54
2021/12/18 10:12:29;;;;;;;5.40;3.10;;;;;;;5.95;100.00;103081.63;4976101;28;20231;-54
2021/12/18 10:14:57;;;;;;;3.53;2.73;;;;;;;5.75;100.00;103073.53;4971248;28;20223;-55
2021/12/18 10:17:26;;;;;;;3.43;2.60;;;;;;;5.79;100.00;103081.53;4968951;28;20292;-54
2021/12/18 10:19:55;;;;;;;3.83;2.97;;;;;;;5.85;100.00;103074.06;4976889;28;20236;-53
2021/12/18 10:22:22;;;;;;;3.80;2.90;;;;;;;5.85;100.00;103074.06;4975347;28;20293;-53
2021/12/18 10:25:02;;;;;;;4.43;2.77;;;;;;;5.84;100.00;103069.69;4977116;28;20235;-52
2021/12/18 10:27:28;;;;;;;2.77;2.37;;;;;;;5.80;100.00;103067.72;4971545;28;20248;-52
2021/12/18 10:30:09;;;;;;;3.33;3.03;;;;;;;5.89;100.00;103070.81;4971503;28;20291;-55
2021/12/18 10:32:35;;;;;;;3.07;2.50;;;;;;;5.95;100.00;103056.44;4988365;28;20238;-51
2021/12/18 10:35:04;;;;;;;5.30;3.00;;;;;;;5.91;100.00;103059.66;4970821;28;20257;-55
2021/12/18 10:37:32;;;;;;;3.70;2.90;;;;;;;5.93;100.00;103051.97;4986755;28;20353;-53
2021/12/18 10:40:06;;;;;;;2.33;2.13;;;;;;;5.97;100.00;103056.56;4979427;28;20743;-53
2021/12/18 10:42:34;;;;;;;3.17;2.47;;;;;;;5.97;100.00;103048.72;4979183;28;20320;-55
2021/12/18 10:45:13;;;;;;;2.97;2.70;;;;;;;6.07;100.00;103043.22;4992161;28;20590;-52
2021/12/18 10:47:55;;;;;;;3.37;2.43;;;;;;;6.04;100.00;103035.22;4974334;28;20262;-53
2021/12/18 10:50:29;;;;;;;3.40;2.07;;;;;;;6.19;100.00;103036.03;4967668;28;20226;-53
2021/12/18 10:52:58;;;;;;;5.13;2.83;;;;;;;6.14;100.00;103032.28;4966988;28;20254;-53
2021/12/18 10:55:30;;;;;;;4.83;3.10;;;;;;;6.08;100.00;103021.53;4967803;28;20231;-54
2021/12/18 10:57:56;;;;;;;3.40;2.40;;;;;;;6.10;100.00;103025.09;4965580;28;20647;-53
2021/12/18 11:00:34;;;;;;;3.47;2.30;;;;;;;6.03;100.00;103012.53;4995276;28;20711;-53
2021/12/18 11:03:13;;;;;;;5.07;3.00;;;;;;;6.07;100.00;103008.38;4966896;28;20234;-52
2021/12/18 11:05:41;;;;;;;2.90;2.13;;;;;;;6.07;100.00;103001.50;4982288;28;20230;-51
2021/12/18 11:08:09;;;;;;;5.20;2.43;;;;;;;6.08;100.00;103005.00;4980836;28;20230;-54
2021/12/18 11:10:53;;;;;;;3.50;2.23;;;;;;;6.15;100.00;103002.78;4970062;28;20665;-54
2021/12/18 11:16:09;;;;;;;3.33;2.40;;;;;;;6.25;100.00;102985.00;4948111;28;20230;-53
2021/12/18 11:18:36;;;;;;;3.53;2.80;;;;;;;6.19;100.00;102982.97;4968201;28;20712;-52
2021/12/18 11:21:03;;;;;;;3.70;3.03;;;;;;;6.25;100.00;102988.53;4971503;28;20844;-53
2021/12/18 11:23:39;;;;;;;4.67;3.00;;;;;;;6.24;100.00;102973.66;4991492;28;20233;-53
2021/12/18 11:26:06;;;;;;;4.10;2.60;;;;;;;6.14;100.00;102974.91;4976067;28;20273;-54
2021/12/18 11:28:32;;;;;;;3.10;2.50;;;;;;;6.20;100.00;102970.00;4965301;28;20344;-52
2021/12/18 11:30:59;;;;;;;3.43;2.83;;;;;;;6.25;100.00;102965.06;4969379;28;20234;-52
2021/12/18 11:33:26;;;;;;;3.50;2.87;;;;;;;6.19;100.00;102968.22;4966220;28;20646;-53
2021/12/18 11:35:52;;;;;;;2.67;1.93;;;;;;;6.27;100.00;102966.00;4968151;28;20282;-52
2021/12/18 11:38:20;;;;;;;2.03;1.83;;;;;;;6.37;100.00;102957.84;4966270;28;20235;-52
2021/12/18 11:40:47;;;;;;;3.47;2.20;;;;;;;6.36;100.00;102958.66;4969206;28;20898;-53
2021/12/18 11:43:32;;;;;;;2.37;2.13;;;;;;;6.36;100.00;102960.38;4990698;28;20233;-55
2021/12/18 11:45:59;;;;;;;3.17;2.07;;;;;;;6.34;100.00;102947.25;4959392;28;20305;-52
2021/12/18 11:48:25;;;;;;;3.13;2.50;;;;;;;6.30;100.00;102950.53;4974002;28;20258;-51
2021/12/18 11:50:52;;;;;;;2.00;1.87;;;;;;;6.35;100.00;102942.91;4967779;28;20230;-53
2021/12/18 11:53:21;;;;;;;2.73;2.33;;;;;;;6.43;100.00;102944.25;4973742;28;20375;-53
2021/12/18 11:55:58;;;;;;;1.63;1.53;;;;;;;6.42;100.00;102950.25;4970973;28;20238;-55
2021/12/18 11:58:27;;;;;;;2.03;1.53;;;;;;;6.48;100.00;102942.75;4982629;28;20228;-53
2021/12/18 12:00:58;;;;;;;2.93;2.17;;;;;;;6.37;100.00;102936.97;4961223;28;20250;-55